Wetmore, Texas
Current Conditions -  °F | °C
As of 6:51 PM on Monday 26 Jan 2015 (Local Time) from KSAT Reporting Station
Broken Clouds Broken Clouds  
Wind Chill: 65°   Ceiling: 25000
Heat Index: 65°   Visibility: 10mi
Dew Point: 37°   Wind: 8mph
Humidity: 36%   Direction: 230°SW
Pressure: 30.19"   Gusts: NA
Location:  29.5903°N, 98.4049°W
Report Text: KSAT 270051Z 23007KT 10SM BKN250 18/03 A3019 RMK AO2 SLP215 T01830028
Loading
Personal Weather Stations






























Interactive Weather Map New forecast layout! Learn more

10-Day Weather Forecast

Advertisements
Track Severe Weather on mobile